Aérodrome :
LOGIN :

S'inscrire | Disclaimer

   EN    FR    IT 

 










Légende :    VFR   VFR Marginal   IFR   IFR Intensif   IFR Très Intensif
Visi : 
Plafond : 
>= 8 km
>= 3000ft
5 à 8 km
1000 à 3000 ft
1500m à 5 km
500 à 1000 ft
800 à 1500m
200 à 500 ft
< 800m
< 200 ft
Symboles :   Orages  Brouillard  Fortes neiges  Fortes précipitations  Vent > 20 kt
SIGMETs :   Divers  Orages  Givrage  Turbulence  Onde Orograph.  Cendres Volcan.






- Altitude de l'aérodrome : 15 ft
- Code IATA : BHD


EGAC - George Best Belfast City

DERNIER METAR :
  • 140550Z AUTO 02019KT 9999 FEW020/// BKN045/// 05/03 Q1003

METARs EXPIRÉS :
  • 140520Z AUTO 03017KT 9999 FEW024/// SCT046/// 05/03 Q1003
  • 140450Z AUTO 02016KT 9999 SCT022/// 05/03 Q1002
  • 140420Z AUTO 02016KT 9999 FEW019/// 05/03 Q1001
  • 140350Z AUTO 02017KT 9999 NCD 05/03 Q1001
  • 140320Z AUTO 02015KT 9999 NCD 05/03 Q1000

Prévision TAF périmée.
ATIS : +44 02890 935 124



MET'MAP, la Météo Aéronautique d'un coup d'oeil ! - Copyright ORBIFLY Décembre 2007 - Disclaimer

ORBIFLY MET'MAP TEAM :

Programmation & Développement : Alexandra Zaïnal
Conception & Développement : Baudouin d'Aumeries
Co-Programmation & Développement : Marc-Olivier Méhu
Soutien technique & logistique : Manuel Goepfert

Contact : metmap@orbifly.com




SOURCES & CREDITS :

   NOAA